Barney, Arkansas
Current Conditions -  °F | °C
As of 7:58 AM on Wednesday 26 Nov 2014 (Local Time) from KLRF Reporting Station
Broken Clouds Broken Clouds  
Wind Chill: 35°   Ceiling: 14000
Heat Index: 35°   Visibility: 10mi
Dew Point: 31°   Wind: 0mph
Humidity: 87%   Direction: NA
Pressure: 30.07"   Gusts: NA
Location:  35.2186°N, 92.2123°W
Report Text: KLRF 261358Z AUTO 00000KT 10SM BKN140 02/00 A3007 RMK AO2 SLP188 T00151004
Loading
Personal Weather Stations






























Interactive Weather Map New forecast layout! Learn more

10-Day Weather Forecast

Advertisements
Track Severe Weather on mobile